Time;durP1;ratioP1;P1;durP2;ratioP2;P2;SDS_P1;SDS_P2;PMS_P1;PMS_P2;Temp;Humidity;BMP_temperature;BMP_pressure;BME280_temperature;BME280_humidity;BME280_pressure;Samples;Min_cycle;Max_cycle;Signal;HPM_P1;HPM_P2
2022/05/26 00:00:38;;;;;;;7.55;3.17;;;;;;;;;;5035684;27;96866;-74
2022/05/26 00:03:05;;;;;;;5.80;3.45;;;;;;;;;;5055516;27;96130;-72
2022/05/26 00:05:32;;;;;;;8.52;3.50;;;;;;;;;;5052263;27;96123;-70
2022/05/26 00:07:58;;;;;;;5.97;3.30;;;;;;;;;;5055024;27;95808;-69
2022/05/26 00:10:25;;;;;;;7.32;3.80;;;;;;;;;;5054982;27;97406;-72
2022/05/26 00:12:51;;;;;;;12.57;3.83;;;;;;;;;;5055133;27;95131;-74
2022/05/26 00:15:17;;;;;;;10.85;4.05;;;;;;;;;;5053852;27;96806;-74
2022/05/26 00:17:43;;;;;;;6.00;3.17;;;;;;;;;;5058454;27;97270;-72
2022/05/26 00:20:10;;;;;;;7.53;3.55;;;;;;;;;;5051288;27;96902;-70
2022/05/26 00:22:36;;;;;;;8.45;4.00;;;;;;;;;;5054562;27;97153;-73
2022/05/26 00:25:03;;;;;;;9.48;3.90;;;;;;;;;;5055075;27;95331;-72
2022/05/26 00:27:29;;;;;;;7.05;3.85;;;;;;;;;;5055491;27;96940;-73
2022/05/26 00:29:56;;;;;;;12.45;3.80;;;;;;;;;;5054978;27;96116;-72
2022/05/26 00:32:22;;;;;;;7.20;3.60;;;;;;;;;;5049223;27;95884;-74
2022/05/26 00:34:48;;;;;;;8.32;3.47;;;;;;;;;;5045539;27;96812;-72
2022/05/26 00:37:15;;;;;;;6.88;3.65;;;;;;;;;;5054947;27;97510;-71
2022/05/26 00:39:41;;;;;;;8.05;3.78;;;;;;;;;;5058541;27;95328;-73
2022/05/26 00:42:08;;;;;;;7.70;3.90;;;;;;;;;;5036013;27;97684;-73
2022/05/26 00:44:34;;;;;;;10.70;4.70;;;;;;;;;;5054319;27;95389;-73
2022/05/26 00:47:21;;;;;;;8.20;4.15;;;;;;;;;;5054949;27;95546;-74
2022/05/26 00:49:50;;;;;;;10.20;4.53;;;;;;;;;;5053064;27;96253;-73
2022/05/26 00:52:21;;;;;;;8.20;4.57;;;;;;;;;;5054066;27;95221;-73
2022/05/26 00:54:48;;;;;;;7.45;4.18;;;;;;;;;;5053784;27;96909;-73
2022/05/26 00:57:17;;;;;;;6.88;4.00;;;;;;;;;;5054370;27;97339;-74
2022/05/26 00:59:52;;;;;;;8.90;3.92;;;;;;;;;;5054869;27;95188;-74
2022/05/26 01:02:22;;;;;;;9.95;4.32;;;;;;;;;;5057038;27;96842;-73
2022/05/26 01:04:50;;;;;;;8.15;4.30;;;;;;;;;;5020690;27;95279;-70
2022/05/26 01:07:21;;;;;;;9.02;4.43;;;;;;;;;;5054625;27;96898;-69
2022/05/26 01:09:48;;;;;;;7.53;3.97;;;;;;;;;;5054537;27;97356;-71
2022/05/26 01:12:15;;;;;;;8.27;3.90;;;;;;;;;;5054463;27;96207;-72
2022/05/26 01:14:45;;;;;;;9.25;4.47;;;;;;;;;;5052483;27;97220;-74
2022/05/26 01:17:14;;;;;;;11.25;5.03;;;;;;;;;;5054277;27;96140;-75
2022/05/26 01:19:45;;;;;;;9.40;4.25;;;;;;;;;;5052766;27;95406;-73
2022/05/26 01:22:18;;;;;;;10.27;5.18;;;;;;;;;;5054876;27;96840;-75
2022/05/26 01:24:45;;;;;;;;;;;;;;;;;;5040939;27;97356;-71
2022/05/26 01:27:24;;;;;;;9.10;3.78;;;;;;;;;;5033920;28;126750;-75
2022/05/26 01:29:57;;;;;;;15.98;4.53;;;;;;;;;;5033932;28;97321;-72
2022/05/26 01:32:31;;;;;;;9.77;4.63;;;;;;;;;;5043007;27;95166;-74
2022/05/26 01:35:03;;;;;;;6.63;4.20;;;;;;;;;;5035276;27;97255;-71
2022/05/26 01:37:29;;;;;;;;;;;;;;;;;;5053212;27;97538;-71
2022/05/26 01:40:05;;;;;;;8.75;4.35;;;;;;;;;;5053319;27;117119;-73
2022/05/26 01:42:38;;;;;;;10.93;4.80;;;;;;;;;;5053139;27;97111;-70
2022/05/26 01:45:23;;;;;;;15.15;5.10;;;;;;;;;;5057477;27;97357;-73
2022/05/26 01:48:09;;;;;;;9.82;5.15;;;;;;;;;;5053822;27;96842;-70
2022/05/26 01:50:36;;;;;;;10.30;4.63;;;;;;;;;;5053352;27;97354;-71
2022/05/26 01:53:18;;;;;;;9.85;4.78;;;;;;;;;;5053025;27;95149;-71
2022/05/26 01:55:44;;;;;;;;;;;;;;;;;;5054314;27;95808;-71
2022/05/26 01:58:16;;;;;;;7.75;4.72;;;;;;;;;;5053149;27;127416;-72
2022/05/26 02:00:44;;;;;;;9.18;4.60;;;;;;;;;;5053286;27;95176;-71
2022/05/26 02:03:16;;;;;;;12.55;4.63;;;;;;;;;;5043023;27;96871;-70
2022/05/26 02:05:42;;;;;;;;;;;;;;;;;;5021885;27;97296;-72
2022/05/26 02:08:08;;;;;;;7.28;3.78;;;;;;;;;;5056037;27;118625;-70
2022/05/26 02:10:38;;;;;;;10.35;4.07;;;;;;;;;;5051139;27;97275;-71
2022/05/26 02:13:07;;;;;;;14.13;5.18;;;;;;;;;;5052630;27;95232;-72
2022/05/26 02:15:37;;;;;;;9.85;4.50;;;;;;;;;;5047078;27;95717;-71
2022/05/26 02:18:10;;;;;;;9.52;4.43;;;;;;;;;;5046458;27;97355;-70
2022/05/26 02:20:43;;;;;;;8.60;4.00;;;;;;;;;;5034898;27;95279;-70
2022/05/26 02:23:12;;;;;;;11.43;4.38;;;;;;;;;;5046503;27;96734;-74
2022/05/26 02:25:38;;;;;;;9.00;3.55;;;;;;;;;;5065006;27;97234;-74
2022/05/26 02:28:05;;;;;;;6.65;3.60;;;;;;;;;;5056287;27;96445;-74
2022/05/26 02:30:34;;;;;;;9.63;4.43;;;;;;;;;;5055849;27;96850;-74
2022/05/26 02:33:00;;;;;;;8.30;3.88;;;;;;;;;;5049249;27;95460;-75
2022/05/26 02:35:29;;;;;;;9.98;4.13;;;;;;;;;;5051942;27;96852;-74
2022/05/26 02:38:08;;;;;;;13.25;4.57;;;;;;;;;;5053477;27;97286;-74
2022/05/26 02:40:35;;;;;;;11.57;4.03;;;;;;;;;;5053066;27;95002;-75
2022/05/26 02:43:03;;;;;;;8.63;3.80;;;;;;;;;;5038516;27;96704;-74
2022/05/26 02:45:33;;;;;;;9.48;3.63;;;;;;;;;;5052901;27;97474;-74
2022/05/26 02:48:17;;;;;;;12.48;3.88;;;;;;;;;;5053582;27;95300;-71
2022/05/26 02:50:47;;;;;;;11.00;3.80;;;;;;;;;;5040648;27;96924;-75
2022/05/26 02:53:18;;;;;;;10.25;4.15;;;;;;;;;;5071028;27;97271;-73
2022/05/26 02:55:48;;;;;;;13.70;3.97;;;;;;;;;;5052377;27;95742;-71
2022/05/26 02:58:24;;;;;;;8.52;3.70;;;;;;;;;;5051251;27;97684;-74
2022/05/26 03:00:57;;;;;;;8.32;3.80;;;;;;;;;;5042576;27;95363;-72
2022/05/26 03:03:35;;;;;;;7.68;3.67;;;;;;;;;;5067811;27;96867;-72
2022/05/26 03:06:10;;;;;;;8.68;3.90;;;;;;;;;;5052914;27;97233;-72
2022/05/26 03:08:39;;;;;;;5.75;3.25;;;;;;;;;;5053051;27;95884;-73
2022/05/26 03:11:07;;;;;;;9.05;3.72;;;;;;;;;;5059717;27;96784;-73
2022/05/26 03:13:33;;;;;;;7.10;3.42;;;;;;;;;;5066301;27;97340;-71
2022/05/26 03:16:00;;;;;;;11.15;4.63;;;;;;;;;;5038554;27;95461;-72
2022/05/26 03:18:26;;;;;;;8.57;4.22;;;;;;;;;;5031812;28;97369;-70
2022/05/26 03:20:52;;;;;;;8.52;4.03;;;;;;;;;;5054457;27;95234;-70
2022/05/26 03:23:18;;;;;;;10.18;3.88;;;;;;;;;;5054159;27;96823;-72
2022/05/26 03:25:45;;;;;;;6.63;3.63;;;;;;;;;;5014649;27;97287;-72
2022/05/26 03:28:12;;;;;;;8.15;3.20;;;;;;;;;;5052426;27;95337;-73
2022/05/26 03:30:39;;;;;;;9.00;3.92;;;;;;;;;;5051638;27;96291;-73
2022/05/26 03:33:05;;;;;;;8.45;3.40;;;;;;;;;;5063024;27;97259;-71
2022/05/26 03:40:46;;;;;;;9.63;3.90;;;;;;;;;;5059027;27;96596;-74
2022/05/26 03:41:17;;;;;;;10.30;3.70;;;;;;;;;;5063864;27;95157;-73
2022/05/26 03:43:46;;;;;;;6.05;3.38;;;;;;;;;;5054903;27;96910;-74
2022/05/26 03:46:12;;;;;;;7.63;3.45;;;;;;;;;;5055646;27;97305;-73
2022/05/26 03:48:40;;;;;;;9.25;3.83;;;;;;;;;;5055866;27;95371;-72
2022/05/26 03:51:07;;;;;;;9.52;3.78;;;;;;;;;;5055521;27;96849;-74
2022/05/26 03:53:34;;;;;;;9.23;3.63;;;;;;;;;;5054503;27;96242;-73
2022/05/26 03:56:01;;;;;;;5.82;2.92;;;;;;;;;;5041510;27;95304;-74
2022/05/26 03:58:27;;;;;;;11.13;4.30;;;;;;;;;;5057955;27;96419;-71
2022/05/26 04:00:53;;;;;;;11.88;3.92;;;;;;;;;;5069859;27;95324;-74
2022/05/26 04:03:20;;;;;;;11.45;3.72;;;;;;;;;;5076566;27;96794;-71
2022/05/26 04:05:46;;;;;;;7.97;3.50;;;;;;;;;;5057652;27;97293;-72
2022/05/26 04:08:12;;;;;;;8.18;3.58;;;;;;;;;;5054085;27;95532;-72
2022/05/26 04:10:39;;;;;;;14.25;3.35;;;;;;;;;;5054759;27;96853;-72
2022/05/26 04:13:05;;;;;;;6.93;3.08;;;;;;;;;;5054928;27;97374;-72
2022/05/26 04:15:31;;;;;;;7.95;2.85;;;;;;;;;;5054015;27;95383;-72
2022/05/26 04:17:58;;;;;;;7.35;3.40;;;;;;;;;;5055982;27;96802;-73
2022/05/26 04:20:24;;;;;;;11.13;3.70;;;;;;;;;;5069875;27;96303;-73
2022/05/26 04:22:50;;;;;;;6.22;2.97;;;;;;;;;;5076250;27;96807;-72
2022/05/26 04:25:18;;;;;;;10.85;3.63;;;;;;;;;;5062705;27;97122;-72
2022/05/26 04:27:44;;;;;;;7.90;3.45;;;;;;;;;;5055303;27;95348;-72
2022/05/26 04:30:11;;;;;;;9.80;3.80;;;;;;;;;;5064124;27;97270;-72
2022/05/26 04:32:39;;;;;;;12.80;3.50;;;;;;;;;;5075377;27;97350;-70
2022/05/26 04:35:07;;;;;;;8.80;3.20;;;;;;;;;;5069078;27;95298;-71
2022/05/26 04:37:33;;;;;;;6.78;3.03;;;;;;;;;;5049279;27;96826;-70
2022/05/26 04:40:00;;;;;;;9.93;3.92;;;;;;;;;;5041190;27;97370;-70
2022/05/26 04:42:27;;;;;;;8.05;3.38;;;;;;;;;;5052188;27;95629;-70
2022/05/26 19:39:39;;;;;;;1.55;1.10;;;;;;;;;;5067829;27;1283496;-72
2022/05/26 19:42:06;;;;;;;2.17;1.38;;;;;;;;;;5089416;27;97512;-72
2022/05/26 19:44:35;;;;;;;7.00;1.90;;;;;;;;;;5088460;27;95291;-76
2022/05/26 19:47:02;;;;;;;2.72;1.30;;;;;;;;;;5089303;27;96747;-76
2022/05/26 19:49:29;;;;;;;5.80;1.38;;;;;;;;;;5087635;27;97534;-70
2022/05/26 19:51:55;;;;;;;2.67;1.30;;;;;;;;;;5090241;27;95609;-71
2022/05/26 19:54:21;;;;;;;1.60;1.13;;;;;;;;;;5086693;27;96632;-74
2022/05/26 19:57:08;;;;;;;3.92;1.38;;;;;;;;;;5078138;27;99253;-72
2022/05/26 19:59:35;;;;;;;2.58;1.20;;;;;;;;;;5071795;27;95268;-72
2022/05/26 20:02:02;;;;;;;2.47;1.40;;;;;;;;;;5069538;27;96072;-72
2022/05/26 20:04:28;;;;;;;3.58;1.50;;;;;;;;;;5068877;27;95366;-72
2022/05/26 20:06:55;;;;;;;5.65;1.67;;;;;;;;;;5079125;27;95929;-72
2022/05/26 20:09:21;;;;;;;4.25;1.48;;;;;;;;;;5088794;27;97381;-74
2022/05/26 20:11:48;;;;;;;11.98;2.00;;;;;;;;;;5088533;27;95264;-71
2022/05/26 20:14:15;;;;;;;1.90;1.15;;;;;;;;;;5089997;27;96822;-73
2022/05/26 20:16:41;;;;;;;6.75;1.80;;;;;;;;;;5087899;27;97307;-72
2022/05/26 20:19:08;;;;;;;3.28;1.50;;;;;;;;;;5087583;27;95356;-75
2022/05/26 20:21:34;;;;;;;1.55;1.25;;;;;;;;;;5091478;27;97011;-73
2022/05/26 20:24:02;;;;;;;2.50;1.58;;;;;;;;;;5089710;27;95440;-72
2022/05/26 20:26:30;;;;;;;3.17;1.23;;;;;;;;;;5087749;27;96719;-71
2022/05/26 20:31:41;;;;;;;3.55;1.85;;;;;;;;;;5083874;27;95206;-73
2022/05/26 20:34:07;;;;;;;2.30;1.30;;;;;;;;;;5088253;27;96685;-71
2022/05/26 20:36:34;;;;;;;1.67;1.33;;;;;;;;;;5085059;27;97263;-72
2022/05/26 20:39:01;;;;;;;1.95;1.40;;;;;;;;;;5075076;27;95380;-72
2022/05/26 20:41:27;;;;;;;2.97;1.65;;;;;;;;;;5086680;27;96773;-73
2022/05/26 20:43:54;;;;;;;2.63;1.50;;;;;;;;;;5092692;27;97212;-72
2022/05/26 20:46:21;;;;;;;2.05;1.35;;;;;;;;;;5088957;27;96725;-74
2022/05/26 20:48:48;;;;;;;1.63;1.20;;;;;;;;;;5088666;27;97442;-74
2022/05/26 20:51:15;;;;;;;3.28;1.40;;;;;;;;;;5072997;27;95752;-74
2022/05/26 20:53:42;;;;;;;3.00;1.40;;;;;;;;;;5074998;27;96740;-72
2022/05/26 20:56:09;;;;;;;3.25;1.73;;;;;;;;;;5068716;27;96679;-76
2022/05/26 20:58:36;;;;;;;6.80;1.90;;;;;;;;;;5060685;27;95224;-72
2022/05/26 21:01:02;;;;;;;3.45;1.40;;;;;;;;;;5075185;27;96838;-71
2022/05/26 21:03:31;;;;;;;4.25;1.90;;;;;;;;;;5063095;27;97378;-75
2022/05/26 21:05:58;;;;;;;5.10;1.70;;;;;;;;;;5062171;27;95332;-73
2022/05/26 21:08:26;;;;;;;2.58;1.70;;;;;;;;;;5068017;27;97337;-72
2022/05/26 21:10:52;;;;;;;4.03;1.90;;;;;;;;;;5055899;27;95466;-72
2022/05/26 21:13:19;;;;;;;3.85;1.83;;;;;;;;;;5055772;27;96447;-74
2022/05/26 21:15:46;;;;;;;2.53;1.70;;;;;;;;;;5057373;27;97125;-72
2022/05/26 21:18:15;;;;;;;2.60;1.50;;;;;;;;;;5070313;27;95449;-71
2022/05/26 21:20:42;;;;;;;3.40;1.80;;;;;;;;;;5075725;27;96716;-71
2022/05/26 21:23:13;;;;;;;2.88;1.70;;;;;;;;;;5074989;27;97646;-72
2022/05/26 21:25:42;;;;;;;4.95;2.15;;;;;;;;;;5075490;27;95354;-73
2022/05/26 21:28:29;;;;;;;3.17;1.73;;;;;;;;;;5078489;27;97571;-73
2022/05/26 21:30:58;;;;;;;2.70;1.55;;;;;;;;;;5073501;27;95273;-75
2022/05/26 21:33:24;;;;;;;4.10;1.98;;;;;;;;;;5075955;27;96871;-71
2022/05/26 21:35:51;;;;;;;2.92;1.70;;;;;;;;;;5075387;27;97478;-74
2022/05/26 21:38:17;;;;;;;2.53;1.75;;;;;;;;;;5073839;27;95326;-75
2022/05/26 21:40:44;;;;;;;2.08;1.40;;;;;;;;;;5073761;27;96799;-73
2022/05/26 21:43:12;;;;;;;2.28;1.60;;;;;;;;;;5074438;27;96353;-74
2022/05/26 21:45:38;;;;;;;2.72;1.80;;;;;;;;;;5074413;27;95464;-73
2022/05/26 21:48:05;;;;;;;3.55;1.70;;;;;;;;;;5075783;27;96740;-75
2022/05/26 21:50:32;;;;;;;2.50;1.67;;;;;;;;;;5076665;27;95376;-74
2022/05/26 21:52:59;;;;;;;2.42;1.70;;;;;;;;;;5075572;27;96780;-76
2022/05/26 21:55:28;;;;;;;3.80;2.03;;;;;;;;;;5075009;27;97249;-76
2022/05/26 21:57:54;;;;;;;3.50;1.90;;;;;;;;;;5075120;27;95170;-73
2022/05/26 22:00:24;;;;;;;5.50;1.90;;;;;;;;;;5071508;27;96624;-73
2022/05/26 22:02:50;;;;;;;4.18;1.95;;;;;;;;;;5072003;27;97301;-74
2022/05/26 22:10:50;;;;;;;3.88;2.05;;;;;;;;;;5077612;27;96437;-74
2022/05/26 22:13:17;;;;;;;3.20;2.05;;;;;;;;;;5075266;27;96362;-74
2022/05/26 22:15:44;;;;;;;3.55;1.92;;;;;;;;;;5075102;27;96341;-76
2022/05/26 22:18:13;;;;;;;9.57;2.35;;;;;;;;;;5074112;27;95479;-73
2022/05/26 22:20:43;;;;;;;4.57;2.30;;;;;;;;;;5074311;27;95660;-74
2022/05/26 22:23:09;;;;;;;3.83;2.10;;;;;;;;;;5072939;27;97238;-71
2022/05/26 22:25:36;;;;;;;5.15;2.20;;;;;;;;;;5060560;27;95457;-72
2022/05/26 22:28:07;;;;;;;3.17;1.90;;;;;;;;;;5054650;27;96848;-73
2022/05/26 22:30:34;;;;;;;3.45;2.20;;;;;;;;;;5053655;27;95822;-72
2022/05/26 22:33:00;;;;;;;5.07;2.25;;;;;;;;;;5057538;27;95178;-73
2022/05/26 22:35:27;;;;;;;4.13;2.17;;;;;;;;;;5053891;27;97370;-72
2022/05/26 22:37:56;;;;;;;5.38;2.00;;;;;;;;;;5053692;27;95366;-75
2022/05/26 22:40:24;;;;;;;3.58;1.98;;;;;;;;;;5054086;27;96016;-73
2022/05/26 22:42:55;;;;;;;8.10;2.00;;;;;;;;;;5054311;27;97376;-75
2022/05/26 22:45:33;;;;;;;5.53;2.20;;;;;;;;;;5053669;27;95363;-71
2022/05/26 22:48:00;;;;;;;4.10;2.03;;;;;;;;;;5067508;27;97772;-72
2022/05/26 22:50:26;;;;;;;4.35;1.70;;;;;;;;;;5073234;27;97438;-73
2022/05/26 22:52:53;;;;;;;3.15;1.80;;;;;;;;;;5055129;27;95318;-75
2022/05/26 22:55:19;;;;;;;4.25;2.30;;;;;;;;;;5057028;27;96822;-72
2022/05/26 22:57:46;;;;;;;3.10;1.42;;;;;;;;;;5053043;27;95322;-75
2022/05/26 23:00:15;;;;;;;1.65;1.20;;;;;;;;;;5053052;27;95933;-73
2022/05/26 23:02:45;;;;;;;3.10;1.83;;;;;;;;;;5054185;27;97385;-76
2022/05/26 23:05:12;;;;;;;2.47;1.40;;;;;;;;;;5054104;27;95475;-76
2022/05/26 23:07:46;;;;;;;3.63;1.77;;;;;;;;;;5053245;27;95713;-74
2022/05/26 23:10:15;;;;;;;4.50;1.77;;;;;;;;;;5053781;27;97299;-74
2022/05/26 23:12:42;;;;;;;3.05;1.83;;;;;;;;;;5072043;27;95338;-71
2022/05/26 23:15:10;;;;;;;3.17;1.67;;;;;;;;;;5067122;27;96757;-71
2022/05/26 23:17:37;;;;;;;3.40;1.27;;;;;;;;;;5066584;27;97344;-75
2022/05/26 23:20:04;;;;;;;10.35;1.67;;;;;;;;;;5052793;27;96234;-71
2022/05/26 23:22:31;;;;;;;2.53;1.27;;;;;;;;;;5053554;27;97896;-76
2022/05/26 23:24:58;;;;;;;6.20;1.50;;;;;;;;;;5068595;27;96026;-74
2022/05/26 23:27:29;;;;;;;2.47;1.60;;;;;;;;;;5072548;27;95679;-71
2022/05/26 23:29:56;;;;;;;4.50;1.85;;;;;;;;;;5069033;27;98405;-72
2022/05/26 23:32:23;;;;;;;3.45;1.73;;;;;;;;;;5070486;27;95186;-75
2022/05/26 23:34:50;;;;;;;1.70;1.20;;;;;;;;;;5074002;27;96065;-74
2022/05/26 23:37:16;;;;;;;5.85;1.63;;;;;;;;;;5072020;27;97356;-75
2022/05/26 23:39:42;;;;;;;3.83;1.90;;;;;;;;;;5076806;27;95309;-73
2022/05/26 23:44:54;;;;;;;4.93;1.90;;;;;;;;;;5072891;27;95392;-75
2022/05/26 23:47:21;;;;;;;4.88;2.00;;;;;;;;;;5073156;27;97254;-71
2022/05/26 23:49:47;;;;;;;4.93;2.10;;;;;;;;;;5072169;27;95886;-74
2022/05/26 23:52:14;;;;;;;5.07;1.85;;;;;;;;;;5073503;27;95126;-74
2022/05/26 23:54:43;;;;;;;5.47;2.20;;;;;;;;;;5071911;27;96937;-75
2022/05/26 23:59:55;;;;;;;2.50;1.70;;;;;;;;;;5070813;27;95538;-71
